»·PEaware :: AAL683 KEWR-KJFK

AAL683 :: KEWR-KJFK

FLIGHT INFORMATION

Flight Status: Arrived
Operator:
American Airlines
More flights by this operator :: More flights under this callsign
Pilot: Mike B. (36914)
Aircraft: MCDONNELL-DOUGLAS MD-82
(MD82)
More flights by this aircraft type
Origin: KEWR Newark Intl
United States
Destination: KJFK Kennedy Intl
United States
More flights between these airports :: More routes between these airports
Route: DPK
File this flight plan on PilotEdge
Remarks: Twitch.tv / moosestaffa - not currently streaming
Altitude:
(Current/Filed)
11,000ft
Speed:
(Current/Filed)
305kts
Departed: 01-Dec-22 06:47 AM
Arrived: 01-Dec-22 07:36 AM
Distance/Time
Traveled:
17nm/0:49
Distance/Time
To Go:
Arrived

Flight Plot

Page will automatically refresh every two minutes.

Flight plan parsing failed; only flown route is shown


Map Options




Map Legend


Flown Route
Filed Route
Departure Airport
Arrival Airport
Navaid (VOR, NDB)
Fix

Horizontal Profiles

Position Reports

Time Latitude Longitude Heading Altitude Ground
Speed
01-Dec-22 06:23 40.694474 -74.172205 232 18ft 0kts
01-Dec-22 06:24 40.694474 -74.172205 232 18ft 0kts
01-Dec-22 06:25 40.694474 -74.172205 232 17ft 0kts
01-Dec-22 06:26 40.694474 -74.172205 232 17ft 0kts
01-Dec-22 06:27 40.694474 -74.172205 232 17ft 0kts
01-Dec-22 06:28 40.694474 -74.172205 232 17ft 0kts
01-Dec-22 06:29 40.694474 -74.172205 232 17ft 0kts
01-Dec-22 06:30 40.694474 -74.172205 232 17ft 0kts
01-Dec-22 06:31 40.694474 -74.172205 232 17ft 0kts
01-Dec-22 06:32 40.694474 -74.172205 232 17ft 0kts
01-Dec-22 06:33 40.694474 -74.172205 232 17ft 0kts
01-Dec-22 06:34 40.694474 -74.172205 232 17ft 0kts
01-Dec-22 06:35 40.694474 -74.172205 232 17ft 0kts
01-Dec-22 06:36 40.694474 -74.172205 232 17ft 0kts
01-Dec-22 06:37 40.694482 -74.172192 233 17ft 1kts
01-Dec-22 06:38 40.694669 -74.171900 267 22ft 2kts
01-Dec-22 06:39 40.694557 -74.170853 276 22ft 2kts
01-Dec-22 06:40 40.694548 -74.170732 273 22ft 0kts
01-Dec-22 06:41 40.694218 -74.171376 181 17ft 0kts
01-Dec-22 06:42 40.691839 -74.171775 207 18ft 20kts
01-Dec-22 06:43 40.685545 -74.175794 206 24ft 28kts
01-Dec-22 06:44 40.677406 -74.180930 203 23ft 22kts
01-Dec-22 06:45 40.676368 -74.178758 24 19ft 26kts
01-Dec-22 06:46 40.708292 -74.151323 44 1778ft 172kts
01-Dec-22 06:47 40.742082 -74.091949 28 4265ft 240kts
01-Dec-22 06:48 40.786740 -74.127779 282 7144ft 235kts
01-Dec-22 06:49 40.838928 -74.162907 352 10473ft 218kts
01-Dec-22 06:50 40.914306 -74.155410 358 10120ft 290kts
01-Dec-22 06:51 41.000122 -74.145833 357 10901ft 321kts
01-Dec-22 06:52 41.086973 -74.138556 356 11039ft 309kts
01-Dec-22 06:53 41.169523 -74.111584 43 11005ft 338kts
01-Dec-22 06:54 41.194194 -73.986440 74 10993ft 350kts
01-Dec-22 06:55 41.214251 -73.870496 68 10988ft 314kts
01-Dec-22 06:56 41.238730 -73.759112 66 10995ft 312kts
01-Dec-22 06:57 41.263995 -73.648674 66 10986ft 313kts
01-Dec-22 06:58 41.300353 -73.548437 36 11000ft 293kts
01-Dec-22 06:59 41.359065 -73.474476 34 11005ft 289kts
01-Dec-22 07:00 41.417286 -73.400329 36 10966ft 290kts
01-Dec-22 07:01 41.474765 -73.323791 36 10943ft 293kts
01-Dec-22 07:02 41.532160 -73.246311 36 10946ft 293kts
01-Dec-22 07:03 41.589673 -73.169297 36 10954ft 293kts
01-Dec-22 07:04 41.626290 -73.075132 101 11746ft 328kts
01-Dec-22 07:05 41.558000 -72.998629 157 12937ft 337kts
01-Dec-22 07:06 41.485661 -72.918425 136 12952ft 339kts
01-Dec-22 07:07 41.418561 -72.830940 154 12962ft 334kts
01-Dec-22 07:08 41.341132 -72.773734 122 12994ft 340kts
01-Dec-22 07:09 41.301135 -72.659934 111 12966ft 338kts
01-Dec-22 07:10 41.265252 -72.544316 110 12985ft 338kts
01-Dec-22 07:11 41.298958 -72.458729 353 13038ft 274kts
01-Dec-22 07:12 41.374199 -72.465546 347 12591ft 269kts
01-Dec-22 07:13 41.407099 -72.521641 234 12056ft 273kts
01-Dec-22 07:14 41.350398 -72.591563 233 11577ft 277kts
01-Dec-22 07:15 41.296644 -72.662844 232 10997ft 273kts
01-Dec-22 07:16 41.242251 -72.733760 232 11006ft 274kts
01-Dec-22 07:17 41.187258 -72.804499 231 11009ft 275kts
01-Dec-22 07:18 41.131924 -72.875232 231 9901ft 274kts
01-Dec-22 07:19 41.077791 -72.944035 231 8064ft 266kts
01-Dec-22 07:20 41.024564 -73.011247 231 6301ft 262kts
01-Dec-22 07:21 40.973151 -73.076127 229 5045ft 248kts
01-Dec-22 07:22 40.922989 -73.138751 229 4970ft 248kts
01-Dec-22 07:23 40.873749 -73.200324 229 4989ft 223kts
01-Dec-22 07:24 40.832501 -73.251595 231 4953ft 198kts
01-Dec-22 07:25 40.792479 -73.302814 237 4936ft 205kts
01-Dec-22 07:26 40.782861 -73.370248 269 4309ft 186kts
01-Dec-22 07:27 40.778421 -73.435505 268 3398ft 177kts
01-Dec-22 07:28 40.773151 -73.500030 267 2576ft 175kts
01-Dec-22 07:29 40.767308 -73.564128 266 2484ft 177kts
01-Dec-22 07:30 40.760820 -73.628558 256 2455ft 180kts
01-Dec-22 07:31 40.724876 -73.673691 227 2006ft 169kts
01-Dec-22 07:32 40.688533 -73.712618 226 1289ft 161kts
01-Dec-22 07:33 40.660289 -73.748858 242 665ft 138kts
01-Dec-22 07:34 40.633298 -73.776843 209 24ft 87kts
01-Dec-22 07:35 40.626623 -73.783418 306 26ft 2kts
01-Dec-22 07:36 40.629950 -73.781277 30 22ft 23kts
01-Dec-22 07:37 40.632624 -73.779998 13 23ft 0kts
01-Dec-22 07:38 40.634474 -73.781221 300 21ft 19kts
01-Dec-22 07:39 40.637866 -73.788708 301 21ft 21kts
01-Dec-22 07:40 40.641832 -73.795015 25 21ft 16kts
01-Dec-22 07:41 40.641782 -73.793235 109 21ft 0kts
01-Dec-22 07:42 40.641782 -73.793235 109 21ft 0kts
01-Dec-22 07:43 40.641782 -73.793235 109 21ft 0kts
01-Dec-22 07:44 40.641782 -73.793235 109 21ft 0kts
01-Dec-22 07:45 40.641782 -73.793235 109 21ft 0kts

Navigation Log

Ident Type
Flight plan parsing failed, navigation log unavailable